Time;durP1;ratioP1;P1;durP2;ratioP2;P2;SDS_P1;SDS_P2;PMS_P1;PMS_P2;Temp;Humidity;BMP_temperature;BMP_pressure;BME280_temperature;BME280_humidity;BME280_pressure;Samples;Min_cycle;Max_cycle;Signal;HPM_P1;HPM_P2
2022/09/21 00:00:39;;;;;;;9.23;2.80;;;12.60;99.90;;;;;;5005150;28;25095;-75
2022/09/21 00:03:05;;;;;;;7.65;2.72;;;12.60;99.90;;;;;;4983373;28;25057;-75
2022/09/21 00:05:32;;;;;;;7.65;2.63;;;12.70;99.90;;;;;;4996315;28;25069;-74
2022/09/21 00:08:03;;;;;;;10.07;2.50;;;12.90;99.90;;;;;;4996525;28;25082;-74
2022/09/21 00:10:29;;;;;;;4.75;2.08;;;13.00;99.90;;;;;;4996760;28;25143;-74
2022/09/21 00:12:56;;;;;;;6.57;2.70;;;13.00;99.90;;;;;;4996792;28;25083;-74
2022/09/21 00:15:22;;;;;;;4.85;2.47;;;12.90;99.90;;;;;;5001821;28;25066;-74
2022/09/21 00:17:51;;;;;;;9.75;2.70;;;13.00;99.90;;;;;;4968899;28;25047;-74
2022/09/21 00:20:17;;;;;;;5.75;2.38;;;13.10;99.90;;;;;;4996637;28;25104;-73
2022/09/21 00:22:43;;;;;;;5.78;2.05;;;13.20;99.90;;;;;;4990281;28;25110;-74
2022/09/21 00:25:09;;;;;;;9.93;2.50;;;13.30;99.90;;;;;;4989655;28;25149;-73
2022/09/21 00:27:34;;;;;;;5.88;2.13;;;13.40;99.90;;;;;;4990489;28;25069;-73
2022/09/21 00:30:03;;;;;;;8.77;2.30;;;13.30;99.90;;;;;;4994379;28;25061;-74
2022/09/21 00:32:31;;;;;;;8.27;2.40;;;13.20;99.90;;;;;;4985477;28;25118;-73
2022/09/21 00:34:57;;;;;;;7.15;3.35;;;13.30;99.90;;;;;;4991793;28;25050;-74
2022/09/21 00:37:23;;;;;;;7.90;2.47;;;13.30;99.90;;;;;;4987449;28;25069;-74
2022/09/21 00:39:49;;;;;;;9.35;2.40;;;13.30;99.90;;;;;;4997151;28;25144;-74
2022/09/21 00:42:18;;;;;;;6.40;2.63;;;13.40;99.90;;;;;;4996883;28;25079;-74
2022/09/21 00:44:44;;;;;;;8.38;2.47;;;13.50;99.90;;;;;;5000597;28;25078;-74
2022/09/21 00:47:13;;;;;;;5.00;2.33;;;13.50;99.90;;;;;;4988575;28;25088;-73
2022/09/21 00:49:41;;;;;;;5.72;2.45;;;13.50;99.90;;;;;;5000046;28;25072;-73
2022/09/21 00:52:08;;;;;;;4.45;2.42;;;13.40;99.90;;;;;;4991180;28;25073;-74
2022/09/21 00:54:50;;;;;;;7.13;2.25;;;13.30;99.90;;;;;;4986140;28;25090;-74
2022/09/21 00:57:20;;;;;;;6.82;2.72;;;13.20;99.90;;;;;;4999670;28;25057;-74
2022/09/21 00:59:49;;;;;;;8.07;1.98;;;13.20;99.90;;;;;;5014710;28;25057;-75
2022/09/21 01:02:16;;;;;;;4.78;2.35;;;13.20;99.90;;;;;;5026153;28;25074;-75
2022/09/21 01:04:42;;;;;;;5.18;1.95;;;13.20;99.90;;;;;;5013515;28;25101;-75
2022/09/21 01:07:12;;;;;;;4.70;2.05;;;13.30;99.90;;;;;;5003920;28;25057;-74
2022/09/21 01:09:41;;;;;;;8.10;2.08;;;13.40;99.90;;;;;;4984332;28;25071;-73
2022/09/21 01:12:37;;;;;;;7.60;2.30;;;13.30;99.90;;;;;;5010908;28;25074;-73
2022/09/21 01:15:11;;;;;;;3.65;2.22;;;13.20;99.90;;;;;;5002604;28;25065;-75
2022/09/21 01:17:56;;;;;;;4.18;2.10;;;13.20;99.90;;;;;;5008281;28;25069;-74
2022/09/21 01:20:52;;;;;;;6.93;2.15;;;13.30;99.90;;;;;;5022593;28;25055;-75
2022/09/21 01:23:32;;;;;;;5.82;2.78;;;13.30;99.90;;;;;;5006357;28;25083;-74
2022/09/21 01:26:06;;;;;;;7.15;2.95;;;13.30;99.90;;;;;;5006190;28;25076;-72
2022/09/21 01:29:00;;;;;;;6.82;2.08;;;13.20;99.90;;;;;;5014799;28;25071;-74
2022/09/21 01:31:35;;;;;;;5.57;2.47;;;13.10;99.90;;;;;;4998703;28;25104;-73
2022/09/21 01:34:06;;;;;;;7.72;2.53;;;13.10;99.90;;;;;;5000483;28;25060;-73
2022/09/21 01:36:33;;;;;;;9.80;2.53;;;13.00;99.90;;;;;;5001081;28;25111;-73
2022/09/21 01:39:20;;;;;;;7.95;1.98;;;13.00;99.90;;;;;;4998632;28;25091;-74
2022/09/21 01:41:47;;;;;;;4.80;2.40;;;13.10;99.90;;;;;;5009112;28;25077;-73
2022/09/21 01:44:18;;;;;;;6.38;2.50;;;13.10;99.90;;;;;;5014121;28;25071;-73
2022/09/21 01:46:47;;;;;;;5.72;2.42;;;13.10;99.90;;;;;;5003709;28;25058;-72
2022/09/21 01:49:22;;;;;;;4.70;2.25;;;13.10;99.90;;;;;;5007960;28;25062;-73
2022/09/21 01:51:56;;;;;;;4.40;2.05;;;13.20;99.90;;;;;;5000871;28;25163;-73
2022/09/21 01:54:29;;;;;;;6.82;2.20;;;12.90;99.90;;;;;;5004272;28;25103;-73
2022/09/21 01:57:06;;;;;;;6.05;2.20;;;12.80;99.90;;;;;;5000530;28;25082;-73
2022/09/21 01:59:44;;;;;;;2.63;2.05;;;12.70;99.90;;;;;;5001506;28;25065;-75
2022/09/21 02:02:15;;;;;;;4.68;2.20;;;12.70;99.90;;;;;;5000436;28;25062;-74
2022/09/21 02:04:41;;;;;;;15.75;2.30;;;12.60;99.90;;;;;;4990807;28;25083;-75
2022/09/21 02:07:07;;;;;;;7.82;2.67;;;12.50;99.90;;;;;;4993261;28;25058;-73
2022/09/21 02:09:36;;;;;;;7.13;2.70;;;12.50;99.90;;;;;;5000100;28;25079;-74
2022/09/21 02:12:02;;;;;;;8.82;2.70;;;12.50;99.90;;;;;;5001208;28;25072;-74
2022/09/21 02:14:31;;;;;;;3.92;2.20;;;12.50;99.90;;;;;;4998992;28;25076;-74
2022/09/21 02:17:26;;;;;;;6.53;2.65;;;12.50;99.90;;;;;;4994920;28;25153;-74
2022/09/21 02:20:14;;;;;;;7.55;2.97;;;12.60;99.90;;;;;;5007578;28;25068;-74
2022/09/21 02:22:58;;;;;;;4.13;2.28;;;12.60;99.90;;;;;;4991295;28;25146;-73
2022/09/21 02:25:40;;;;;;;5.95;2.42;;;12.40;99.90;;;;;;4995940;28;25105;-74
2022/09/21 02:28:48;;;;;;;5.18;3.05;;;12.40;99.90;;;;;;4980402;28;25056;-72
2022/09/21 02:31:32;;;;;;;8.50;3.03;;;12.40;99.90;;;;;;4984144;28;25070;-74
2022/09/21 02:34:05;;;;;;;9.57;2.97;;;12.40;99.90;;;;;;4987626;28;25092;-74
2022/09/21 02:36:34;;;;;;;;;;;12.30;99.90;;;;;;4994862;28;25050;-74
2022/09/21 02:39:08;;;;;;;4.57;2.65;;;12.20;99.90;;;;;;4988500;28;25070;-75
2022/09/21 02:41:44;;;;;;;10.52;3.38;;;12.20;99.90;;;;;;4993878;28;25176;-76
2022/09/21 02:44:22;;;;;;;5.65;3.20;;;12.20;99.90;;;;;;4996806;28;25154;-73
2022/09/21 02:47:22;;;;;;;4.07;2.47;;;12.20;99.90;;;;;;5007976;28;25062;-73
2022/09/21 02:49:53;;;;;;;4.47;2.83;;;12.00;99.90;;;;;;5003720;28;25085;-74
2022/09/21 02:52:20;;;;;;;3.95;2.92;;;11.80;99.90;;;;;;5003069;28;25073;-74
2022/09/21 02:54:49;;;;;;;6.72;3.10;;;11.80;99.90;;;;;;4999377;28;25150;-74
2022/09/21 02:57:18;;;;;;;7.15;2.83;;;11.90;99.90;;;;;;4983886;28;25053;-74
2022/09/21 02:59:44;;;;;;;6.40;2.92;;;11.90;99.90;;;;;;4996540;28;25053;-75
2022/09/21 03:02:11;;;;;;;5.60;2.97;;;11.80;99.90;;;;;;4999817;28;25060;-74
2022/09/21 03:04:42;;;;;;;8.73;3.53;;;11.80;99.90;;;;;;4991696;28;25101;-74
2022/09/21 03:07:08;;;;;;;4.75;2.92;;;11.70;99.90;;;;;;4999291;28;25070;-76
2022/09/21 03:09:34;;;;;;;6.45;2.58;;;11.70;99.90;;;;;;4998200;28;25155;-73
2022/09/21 03:12:00;;;;;;;7.18;3.22;;;11.80;99.90;;;;;;4997293;28;25092;-73
2022/09/21 03:14:26;;;;;;;7.65;2.92;;;11.80;99.90;;;;;;4995538;28;25081;-73
2022/09/21 03:16:52;;;;;;;5.88;2.20;;;11.90;99.90;;;;;;5007127;28;25070;-71
2022/09/21 03:19:18;;;;;;;6.43;3.05;;;11.80;99.90;;;;;;5004591;28;25103;-76
2022/09/21 03:21:43;;;;;;;6.22;3.22;;;11.70;99.90;;;;;;4978316;28;25101;-75
2022/09/21 03:24:09;;;;;;;6.10;3.00;;;11.60;99.90;;;;;;4987563;28;25095;-74
2022/09/21 03:26:35;;;;;;;9.35;3.20;;;11.60;99.90;;;;;;5002624;28;25079;-75
2022/09/21 03:29:02;;;;;;;7.70;3.35;;;11.60;99.90;;;;;;4995970;28;25109;-74
2022/09/21 03:31:28;;;;;;;6.80;3.55;;;11.60;99.90;;;;;;5002452;28;25136;-75
2022/09/21 03:33:54;;;;;;;4.43;2.70;;;11.60;99.90;;;;;;5001292;28;25074;-74
2022/09/21 03:36:19;;;;;;;4.53;3.03;;;11.50;99.90;;;;;;4997865;28;25065;-75
2022/09/21 03:38:45;;;;;;;9.13;3.05;;;11.40;99.90;;;;;;4992748;28;25131;-74
2022/09/21 03:41:13;;;;;;;5.43;2.80;;;11.40;99.90;;;;;;5002430;28;25062;-75
2022/09/21 03:43:38;;;;;;;4.97;3.30;;;11.50;99.90;;;;;;4990894;28;25060;-75
2022/09/21 03:46:04;;;;;;;9.70;3.47;;;11.50;99.90;;;;;;4993693;28;25078;-74
2022/09/21 03:48:31;;;;;;;7.85;3.30;;;11.60;99.90;;;;;;5005474;28;25141;-75
2022/09/21 03:50:57;;;;;;;6.13;3.03;;;11.70;99.90;;;;;;5000492;28;25116;-75
2022/09/21 03:53:22;;;;;;;6.50;2.90;;;11.70;99.90;;;;;;4995597;28;25453;-75
2022/09/21 03:55:48;;;;;;;8.32;3.08;;;11.70;99.90;;;;;;4996474;28;25104;-74
2022/09/21 03:58:14;;;;;;;5.95;3.03;;;11.60;99.90;;;;;;4996557;28;25058;-75
2022/09/21 04:00:39;;;;;;;7.78;3.20;;;11.60;99.90;;;;;;5002441;28;25067;-75
2022/09/21 04:03:05;;;;;;;6.38;3.33;;;11.60;99.90;;;;;;5000512;28;25057;-75
2022/09/21 04:05:31;;;;;;;6.10;3.53;;;11.60;99.90;;;;;;5001589;28;25067;-75
2022/09/21 04:07:56;;;;;;;5.10;2.72;;;11.60;99.90;;;;;;5005010;28;25060;-73
2022/09/21 04:10:25;;;;;;;8.90;3.60;;;11.60;99.90;;;;;;5005160;28;25093;-75
2022/09/21 04:12:55;;;;;;;5.20;3.25;;;11.40;99.90;;;;;;5016517;28;25067;-73
2022/09/21 04:15:22;;;;;;;9.98;3.58;;;11.30;99.90;;;;;;5026410;28;25066;-76
2022/09/21 04:17:50;;;;;;;7.80;3.53;;;11.30;99.90;;;;;;5001147;28;25073;-77
2022/09/21 04:20:16;;;;;;;9.52;3.00;;;11.30;99.90;;;;;;4989264;28;25141;-74
2022/09/21 04:22:43;;;;;;;10.15;3.30;;;11.30;99.90;;;;;;4992314;28;25063;-73
2022/09/21 04:25:09;;;;;;;5.30;3.10;;;11.30;99.90;;;;;;4976949;28;25162;-75
2022/09/21 04:27:35;;;;;;;6.88;3.47;;;11.40;99.90;;;;;;5000428;28;25077;-76
2022/09/21 04:30:00;;;;;;;6.60;3.38;;;11.50;99.90;;;;;;4996563;28;25086;-75
2022/09/21 04:32:26;;;;;;;9.23;3.40;;;11.50;99.90;;;;;;4994891;28;25131;-75
2022/09/21 04:34:51;;;;;;;6.63;3.67;;;11.40;99.90;;;;;;4983506;28;25066;-74
2022/09/21 04:37:17;;;;;;;6.28;3.63;;;11.40;99.90;;;;;;4996281;28;25059;-74
2022/09/21 04:39:43;;;;;;;7.90;3.80;;;11.30;99.90;;;;;;5008505;28;25091;-76
2022/09/21 04:42:09;;;;;;;6.30;3.22;;;11.20;99.90;;;;;;4979903;28;25140;-75
2022/09/21 04:44:35;;;;;;;8.60;3.60;;;11.10;99.90;;;;;;4998405;28;25064;-74
2022/09/21 04:47:00;;;;;;;5.72;3.38;;;11.10;99.90;;;;;;5001372;28;25144;-74
2022/09/21 04:49:26;;;;;;;5.68;2.92;;;11.20;99.90;;;;;;5000807;28;25089;-75
2022/09/21 04:51:52;;;;;;;5.75;2.72;;;11.20;99.90;;;;;;5004111;28;25090;-73
2022/09/21 04:54:17;;;;;;;6.97;3.13;;;11.10;99.90;;;;;;5012256;28;25078;-74
2022/09/21 04:56:43;;;;;;;5.00;3.10;;;11.20;99.90;;;;;;5007880;28;25153;-74
2022/09/21 04:59:08;;;;;;;6.65;3.13;;;11.20;99.90;;;;;;5002050;28;25118;-75
2022/09/21 05:01:34;;;;;;;6.88;3.08;;;11.10;99.90;;;;;;4994990;28;25127;-76
2022/09/21 05:04:01;;;;;;;15.43;3.60;;;11.10;99.90;;;;;;4995150;28;25163;-76
2022/09/21 05:06:31;;;;;;;5.28;2.97;;;11.10;99.90;;;;;;4998042;28;25056;-76
2022/09/21 05:11:42;;;;;;;5.70;3.58;;;11.10;99.90;;;;;;5001097;28;25096;-74
2022/09/21 05:14:08;;;;;;;8.52;3.60;;;11.00;99.90;;;;;;4993345;28;25146;-75
2022/09/21 05:16:34;;;;;;;9.45;3.33;;;11.00;99.90;;;;;;4987101;28;25083;-75
2022/09/21 05:18:59;;;;;;;6.85;3.60;;;11.00;99.90;;;;;;4993349;28;25065;-74
2022/09/21 05:21:26;;;;;;;7.50;3.45;;;10.90;99.90;;;;;;4999523;28;25070;-77
2022/09/21 05:23:52;;;;;;;6.80;3.67;;;11.10;99.90;;;;;;4996327;28;25164;-76
2022/09/21 05:26:17;;;;;;;12.00;4.22;;;11.10;99.90;;;;;;4996886;28;25109;-75
2022/09/21 05:28:43;;;;;;;8.20;4.28;;;11.10;99.90;;;;;;4997859;28;25066;-78
2022/09/21 05:31:18;;;;;;;7.43;3.80;;;11.20;99.90;;;;;;4998629;28;25159;-75
2022/09/21 05:34:09;;;;;;;9.85;3.92;;;11.10;99.90;;;;;;5002628;28;25075;-75
2022/09/21 05:36:47;;;;;;;7.53;3.70;;;11.20;99.90;;;;;;5003678;28;25041;-74
2022/09/21 05:39:12;;;;;;;8.75;4.07;;;11.20;99.90;;;;;;4995340;28;25077;-75
2022/09/21 05:41:38;;;;;;;8.00;3.45;;;11.20;99.90;;;;;;5001039;28;25135;-75
2022/09/21 05:44:04;;;;;;;9.82;3.80;;;11.20;99.90;;;;;;5003525;28;25073;-75
2022/09/21 05:46:47;;;;;;;10.35;3.60;;;11.20;99.90;;;;;;4997122;28;25073;-76
2022/09/21 05:49:44;;;;;;;8.30;3.42;;;11.30;99.90;;;;;;5000653;28;25074;-75
2022/09/21 05:53:03;;;;;;;11.85;3.78;;;11.30;99.90;;;;;;5005872;28;25064;-75
2022/09/21 05:55:49;;;;;;;9.15;3.92;;;11.30;99.90;;;;;;4997259;28;25089;-75
2022/09/21 05:58:21;;;;;;;10.23;4.18;;;11.30;99.90;;;;;;4982752;28;25059;-78
2022/09/21 06:00:56;;;;;;;6.55;3.70;;;11.30;99.90;;;;;;4999212;28;25095;-77
2022/09/21 06:03:28;;;;;;;9.55;4.05;;;11.30;99.90;;;;;;4997339;28;25076;-75
2022/09/21 06:05:53;;;;;;;9.55;4.10;;;11.40;99.90;;;;;;5005361;28;25092;-76
2022/09/21 06:08:19;;;;;;;6.93;4.05;;;11.40;99.90;;;;;;4986367;28;25103;-75
2022/09/21 06:10:45;;;;;;;8.32;3.90;;;11.50;99.90;;;;;;5004294;28;25116;-75
2022/09/21 06:13:10;;;;;;;8.75;3.95;;;11.60;99.90;;;;;;4994587;28;25063;-75
2022/09/21 06:15:37;;;;;;;11.27;4.15;;;11.70;99.90;;;;;;5007111;28;25058;-75
2022/09/21 06:18:07;;;;;;;6.30;3.97;;;11.90;99.90;;;;;;5007275;28;25060;-76
2022/09/21 06:20:33;;;;;;;9.15;5.38;;;12.00;99.90;;;;;;4999846;28;25087;-76
2022/09/21 06:23:10;;;;;;;10.82;4.55;;;12.10;99.90;;;;;;5005489;28;25075;-75
2022/09/21 06:25:36;;;;;;;10.52;4.25;;;12.20;99.90;;;;;;4998260;28;25080;-75
2022/09/21 06:28:09;;;;;;;9.63;4.70;;;12.30;99.90;;;;;;5002872;28;25092;-75
2022/09/21 06:30:36;;;;;;;10.60;4.85;;;12.50;99.90;;;;;;4988354;28;25053;-76
2022/09/21 06:33:03;;;;;;;10.40;4.72;;;12.70;99.90;;;;;;4998694;28;25064;-76
2022/09/21 06:35:30;;;;;;;11.10;5.05;;;12.90;99.90;;;;;;5004554;28;25050;-76
2022/09/21 06:38:01;;;;;;;11.55;5.25;;;13.00;99.90;;;;;;4986565;28;25080;-76
2022/09/21 06:40:27;;;;;;;9.23;4.63;;;13.20;99.90;;;;;;5016898;28;25060;-75
2022/09/21 06:42:57;;;;;;;13.13;4.63;;;13.30;99.90;;;;;;5019434;28;25066;-75
2022/09/21 06:45:23;;;;;;;8.38;4.10;;;13.30;99.90;;;;;;5020137;28;25053;-75
2022/09/21 06:47:49;;;;;;;14.65;5.28;;;13.40;99.90;;;;;;5002378;28;25068;-76
2022/09/21 06:50:14;;;;;;;9.18;3.80;;;13.50;99.90;;;;;;5001708;28;25149;-75
2022/09/21 06:52:40;;;;;;;5.53;3.67;;;13.50;99.90;;;;;;4990111;28;25063;-75
2022/09/21 06:55:07;;;;;;;6.68;3.45;;;13.50;99.90;;;;;;5016828;28;25060;-76
2022/09/21 06:57:32;;;;;;;9.60;3.95;;;13.50;99.90;;;;;;5022110;28;25083;-76
2022/09/21 06:59:58;;;;;;;6.15;3.35;;;13.50;99.90;;;;;;5014609;28;25055;-76
2022/09/21 07:02:23;;;;;;;8.10;3.70;;;13.60;99.90;;;;;;5004265;28;25158;-76
2022/09/21 07:04:49;;;;;;;4.95;3.67;;;13.60;99.90;;;;;;5003696;28;25089;-75
2022/09/21 07:07:15;;;;;;;7.25;3.90;;;13.70;99.90;;;;;;5001022;28;25084;-75
2022/09/21 07:09:40;;;;;;;9.32;3.50;;;13.90;99.90;;;;;;4998450;28;25080;-75
2022/09/21 07:12:09;;;;;;;10.82;3.85;;;13.90;99.90;;;;;;4993187;28;25066;-78
2022/09/21 07:14:35;;;;;;;10.48;3.65;;;14.00;99.90;;;;;;4990743;28;25103;-75
2022/09/21 07:17:01;;;;;;;6.13;3.22;;;13.90;99.90;;;;;;4996724;28;25058;-76
2022/09/21 07:19:27;;;;;;;10.65;3.50;;;13.90;99.90;;;;;;5000581;28;25069;-76
2022/09/21 07:21:54;;;;;;;5.82;3.47;;;13.80;99.90;;;;;;5001213;28;25104;-75
2022/09/21 07:24:19;;;;;;;9.63;3.60;;;13.80;99.90;;;;;;5003707;28;25074;-77
2022/09/21 07:26:45;;;;;;;7.35;3.55;;;13.70;99.90;;;;;;5004336;28;25065;-75
2022/09/21 07:29:11;;;;;;;8.90;3.75;;;13.70;99.90;;;;;;5005257;28;25069;-77
2022/09/21 07:31:36;;;;;;;8.02;3.50;;;13.70;99.90;;;;;;5002042;28;25055;-77
2022/09/21 07:34:02;;;;;;;5.70;2.97;;;13.80;99.90;;;;;;5006863;28;25059;-76
2022/09/21 07:36:28;;;;;;;5.32;3.22;;;13.80;99.90;;;;;;5008600;28;25077;-76
2022/09/21 07:38:53;;;;;;;8.32;3.35;;;13.80;99.90;;;;;;4996481;28;25103;-75
2022/09/21 07:41:19;;;;;;;7.40;3.63;;;13.80;99.90;;;;;;5006772;28;25096;-75
2022/09/21 07:43:46;;;;;;;7.43;2.80;;;13.90;99.90;;;;;;5008874;28;25097;-76
2022/09/21 07:46:13;;;;;;;7.13;2.92;;;14.00;99.90;;;;;;4999222;28;25080;-76
2022/09/21 07:48:40;;;;;;;5.50;2.40;;;13.90;99.90;;;;;;5001944;28;25080;-75
2022/09/21 07:51:08;;;;;;;7.95;2.90;;;14.00;99.90;;;;;;5008818;28;25080;-76
2022/09/21 07:53:39;;;;;;;6.72;2.70;;;14.00;99.90;;;;;;5004103;28;25101;-75
2022/09/21 07:56:07;;;;;;;11.15;3.58;;;14.10;99.90;;;;;;5008702;28;25104;-76
2022/09/21 08:01:19;;;;;;;7.72;2.28;;;14.10;99.90;;;;;;4979888;28;25069;-78
2022/09/21 08:03:47;;;;;;;7.55;1.52;;;14.00;99.90;;;;;;4996597;28;25055;-77
2022/09/21 08:06:13;;;;;;;3.80;1.77;;;14.20;99.90;;;;;;5001641;28;25078;-76
2022/09/21 08:08:40;;;;;;;3.40;1.52;;;14.10;99.90;;;;;;4996405;28;25072;-77
2022/09/21 08:11:07;;;;;;;4.47;1.17;;;14.20;99.90;;;;;;5008875;28;25171;-77
2022/09/21 08:13:33;;;;;;;9.45;1.75;;;14.40;99.90;;;;;;4997446;28;25049;-75
2022/09/21 08:16:00;;;;;;;5.00;1.63;;;14.50;99.90;;;;;;4992414;28;25151;-74
2022/09/21 08:18:26;;;;;;;2.25;1.05;;;14.50;99.90;;;;;;5005061;28;25090;-74
2022/09/21 08:20:54;;;;;;;6.05;1.45;;;14.70;99.90;;;;;;4991910;28;25098;-75
2022/09/21 08:23:20;;;;;;;3.80;1.23;;;14.90;99.90;;;;;;4995024;28;25106;-74
2022/09/21 08:25:45;;;;;;;3.63;1.70;;;15.00;99.90;;;;;;5001595;28;25107;-75
2022/09/21 08:28:11;;;;;;;3.40;1.02;;;15.30;99.90;;;;;;4993207;28;25138;-75
2022/09/21 08:30:37;;;;;;;4.57;1.45;;;15.70;99.90;;;;;;4997526;28;25070;-74
2022/09/21 08:33:02;;;;;;;5.22;1.13;;;16.10;99.90;;;;;;4994569;28;25143;-75
2022/09/21 08:35:28;;;;;;;5.82;1.45;;;16.40;99.90;;;;;;5003109;28;25109;-74
2022/09/21 08:37:53;;;;;;;1.27;1.10;;;16.50;99.90;;;;;;5002457;28;25112;-73
2022/09/21 08:40:19;;;;;;;4.30;0.90;;;16.60;99.90;;;;;;4992061;28;25133;-73
2022/09/21 08:42:57;;;;;;;2.20;0.63;;;16.70;99.90;;;;;;5021056;28;25065;-74
2022/09/21 08:45:30;;;;;;;1.23;0.82;;;16.60;99.90;;;;;;5020917;28;25054;-74
2022/09/21 08:47:58;;;;;;;3.47;1.13;;;16.90;99.90;;;;;;5023736;28;25071;-76
2022/09/21 08:50:29;;;;;;;4.72;1.10;;;17.00;99.90;;;;;;5011437;28;25081;-74
2022/09/21 08:53:01;;;;;;;2.53;0.88;;;16.80;99.90;;;;;;5016272;28;25062;-74
2022/09/21 08:55:27;;;;;;;3.40;0.90;;;17.10;99.90;;;;;;4994091;28;25067;-76
2022/09/21 08:57:52;;;;;;;5.88;1.90;;;17.30;99.90;;;;;;5001711;28;25124;-74
2022/09/21 09:00:19;;;;;;;3.17;0.98;;;17.50;99.90;;;;;;5013292;28;25064;-73
2022/09/21 09:03:08;;;;;;;7.35;1.17;;;17.40;99.90;;;;;;4999003;28;25145;-73
2022/09/21 09:06:09;;;;;;;1.75;0.80;;;17.30;99.90;;;;;;5007748;28;25124;-74
2022/09/21 09:09:02;;;;;;;2.55;0.80;;;17.30;99.90;;;;;;4987144;28;25095;-74
2022/09/21 09:11:59;;;;;;;4.38;1.10;;;17.10;99.90;;;;;;5000973;28;25054;-74
2022/09/21 09:14:58;;;;;;;4.03;0.88;;;17.00;99.90;;;;;;5002319;28;25071;-74
2022/09/21 09:17:52;;;;;;;8.00;0.90;;;17.10;99.90;;;;;;5000327;28;25057;-74
2022/09/21 09:20:26;;;;;;;2.80;0.70;;;17.10;99.90;;;;;;4997614;28;25054;-74
2022/09/21 09:23:13;;;;;;;6.22;0.98;;;17.00;99.90;;;;;;5006200;28;25074;-73
2022/09/21 09:25:41;;;;;;;4.03;0.75;;;16.30;99.90;;;;;;5007186;28;25127;-74
2022/09/21 09:28:26;;;;;;;5.07;1.10;;;16.00;99.90;;;;;;5008194;28;25123;-74
2022/09/21 09:31:02;;;;;;;5.63;0.95;;;15.90;99.90;;;;;;5005869;28;25079;-75
2022/09/21 09:33:49;;;;;;;7.03;0.93;;;16.10;99.90;;;;;;4999825;28;25138;-75
2022/09/21 09:36:16;;;;;;;5.55;1.17;;;16.40;99.90;;;;;;5005108;28;25074;-74
2022/09/21 09:38:57;;;;;;;3.25;1.60;;;16.30;99.90;;;;;;4988561;28;25050;-74
2022/09/21 09:41:41;;;;;;;7.38;0.95;;;16.40;99.90;;;;;;4992597;28;25074;-75
2022/09/21 09:44:43;;;;;;;3.40;0.90;;;16.20;99.90;;;;;;5002449;28;25056;-74
2022/09/21 09:47:23;;;;;;;5.20;0.77;;;15.90;99.90;;;;;;4999750;28;25086;-74
2022/09/21 09:50:20;;;;;;;3.95;0.93;;;15.90;99.90;;;;;;5006208;28;25127;-75
2022/09/21 09:52:47;;;;;;;2.92;0.73;;;16.10;99.90;;;;;;4998962;28;25115;-73
2022/09/21 09:55:37;;;;;;;3.78;1.05;;;15.70;99.90;;;;;;4998934;28;25067;-74
2022/09/21 09:58:02;;;;;;;4.50;0.82;;;15.70;99.90;;;;;;4987939;28;25176;-73
2022/09/21 10:00:28;;;;;;;3.72;0.85;;;15.90;99.90;;;;;;4997202;28;25105;-74
2022/09/21 10:02:55;;;;;;;2.83;1.02;;;16.00;99.90;;;;;;5005345;28;25152;-73
2022/09/21 10:05:22;;;;;;;1.77;0.90;;;15.80;99.90;;;;;;4984219;28;25166;-73
2022/09/21 10:07:49;;;;;;;6.22;0.90;;;15.90;99.90;;;;;;5001881;28;25081;-75
2022/09/21 10:10:33;;;;;;;2.63;0.93;;;16.00;99.90;;;;;;5000313;28;25086;-75
2022/09/21 10:13:13;;;;;;;2.80;0.60;;;16.00;99.90;;;;;;4994478;28;25065;-74
2022/09/21 10:15:42;;;;;;;3.53;0.98;;;16.10;99.90;;;;;;4997861;28;25069;-75
2022/09/21 10:18:15;;;;;;;2.35;0.70;;;16.20;99.90;;;;;;5005015;28;25071;-73
2022/09/21 10:21:12;;;;;;;0.90;0.50;;;16.30;99.90;;;;;;5000175;28;25051;-73
2022/09/21 10:23:37;;;;;;;3.30;1.05;;;15.90;99.90;;;;;;4991274;28;25061;-74
2022/09/21 10:26:07;;;;;;;3.85;0.68;;;15.60;99.90;;;;;;4991044;28;25075;-73
2022/09/21 10:28:34;;;;;;;2.33;0.75;;;15.50;99.90;;;;;;5004064;28;25075;-73
2022/09/21 10:31:18;;;;;;;7.32;0.88;;;15.50;99.90;;;;;;5005916;28;25073;-73
2022/09/21 10:33:50;;;;;;;2.47;0.80;;;15.70;99.90;;;;;;4998187;28;25150;-74
2022/09/21 10:36:28;;;;;;;1.88;0.50;;;15.70;99.90;;;;;;4988894;28;25066;-74
2022/09/21 10:38:53;;;;;;;3.83;0.70;;;15.70;99.90;;;;;;5007985;28;25108;-73
2022/09/21 10:41:19;;;;;;;7.75;1.10;;;15.70;99.90;;;;;;4968541;28;25082;-74
2022/09/21 10:43:45;;;;;;;6.47;0.95;;;15.70;99.90;;;;;;5002583;28;25162;-73
2022/09/21 10:46:11;;;;;;;2.03;0.52;;;15.60;99.90;;;;;;5004679;28;25102;-74
2022/09/21 10:48:36;;;;;;;1.90;0.90;;;15.70;99.90;;;;;;4998023;28;25113;-74
2022/09/21 10:51:03;;;;;;;3.65;0.77;;;15.80;99.90;;;;;;4999900;28;25075;-73
2022/09/21 10:53:34;;;;;;;6.72;0.60;;;16.00;99.90;;;;;;5001568;28;25058;-72
2022/09/21 10:56:12;;;;;;;3.33;0.60;;;16.20;99.90;;;;;;4987995;28;25101;-74
2022/09/21 10:58:38;;;;;;;1.52;0.68;;;16.40;99.90;;;;;;4997089;28;25159;-75
2022/09/21 11:01:19;;;;;;;2.63;1.27;;;16.30;99.90;;;;;;5006380;28;25077;-74
2022/09/21 11:03:50;;;;;;;5.10;0.73;;;16.40;99.90;;;;;;4993279;28;25088;-74
2022/09/21 11:06:33;;;;;;;2.20;0.77;;;16.90;99.90;;;;;;5008256;28;25054;-74
2022/09/21 11:09:10;;;;;;;3.15;0.68;;;17.00;99.90;;;;;;4980134;28;25078;-74
2022/09/21 11:11:47;;;;;;;4.70;1.20;;;17.30;99.90;;;;;;5001602;28;25154;-73
2022/09/21 11:14:44;;;;;;;3.58;0.80;;;17.10;99.90;;;;;;5008515;28;25053;-76
2022/09/21 11:17:35;;;;;;;6.10;0.70;;;17.00;99.90;;;;;;5005195;28;25063;-76
2022/09/21 11:20:38;;;;;;;3.33;1.00;;;17.30;99.90;;;;;;5012933;28;25074;-73
2022/09/21 11:23:13;;;;;;;2.75;0.75;;;17.50;99.90;;;;;;5004810;28;25070;-74
2022/09/21 11:26:06;;;;;;;2.75;1.10;;;17.70;99.90;;;;;;5001106;28;25067;-74
2022/09/21 11:28:46;;;;;;;6.72;0.90;;;17.90;99.90;;;;;;5001834;28;25092;-73
2022/09/21 11:31:18;;;;;;;2.97;1.20;;;18.30;99.90;;;;;;4990237;28;25055;-74
2022/09/21 11:33:54;;;;;;;1.80;0.95;;;18.30;99.90;;;;;;4995888;28;25075;-75
2022/09/21 11:36:28;;;;;;;2.17;0.93;;;18.50;99.90;;;;;;5009934;28;25082;-75
2022/09/21 11:39:15;;;;;;;2.83;0.60;;;19.20;99.90;;;;;;4982825;28;25051;-74
2022/09/21 11:42:05;;;;;;;3.47;0.82;;;20.00;99.90;;;;;;5008300;28;25087;-73
2022/09/21 11:44:54;;;;;;;2.40;0.70;;;19.90;99.90;;;;;;5003452;28;25118;-74
2022/09/21 11:47:38;;;;;;;0.82;0.40;;;19.30;99.90;;;;;;4984404;28;25082;-74
2022/09/21 11:50:23;;;;;;;2.63;0.60;;;18.90;99.90;;;;;;5002920;28;25083;-75
2022/09/21 11:53:11;;;;;;;1.00;0.47;;;18.10;99.90;;;;;;5012718;28;25077;-75
2022/09/21 11:55:46;;;;;;;3.25;0.70;;;18.30;99.90;;;;;;5000851;28;25075;-75
2022/09/21 11:58:24;;;;;;;1.65;0.98;;;19.00;99.90;;;;;;5001566;28;25071;-73
2022/09/21 12:01:25;;;;;;;2.25;0.40;;;19.10;99.90;;;;;;5008864;28;25070;-71
2022/09/21 12:04:20;;;;;;;5.13;0.68;;;19.80;99.90;;;;;;5003248;28;25055;-74
2022/09/21 12:06:58;;;;;;;1.65;0.68;;;20.20;99.90;;;;;;5002763;28;25150;-74
2022/09/21 12:09:40;;;;;;;3.65;0.80;;;19.50;99.90;;;;;;4999126;28;25066;-75
2022/09/21 12:12:10;;;;;;;;;;;18.20;99.90;;;;;;4996015;28;25099;-72
2022/09/21 12:15:06;;;;;;;3.08;0.60;;;18.50;99.90;;;;;;5010449;28;24108;-74
2022/09/21 12:17:33;;;;;;;1.98;0.75;;;18.30;99.90;;;;;;5014650;28;25089;-73
2022/09/21 12:20:28;;;;;;;2.50;0.82;;;19.00;99.90;;;;;;5025146;28;25050;-72
2022/09/21 12:23:01;;;;;;;2.42;0.85;;;20.00;99.90;;;;;;5024661;28;25070;-72
2022/09/21 12:25:44;;;;;;;3.97;0.85;;;19.70;99.90;;;;;;4994184;28;25084;-74
2022/09/21 12:28:19;;;;;;;2.95;0.55;;;19.40;99.90;;;;;;5004580;28;25114;-72
2022/09/21 12:30:50;;;;;;;5.22;0.60;;;18.70;99.90;;;;;;5024217;28;25073;-72
2022/09/21 12:33:30;;;;;;;2.35;0.50;;;18.50;99.90;;;;;;5018241;28;25084;-71
2022/09/21 12:36:26;;;;;;;3.10;0.38;;;18.20;99.90;;;;;;5018067;28;25066;-74
2022/09/21 12:38:58;;;;;;;2.25;0.50;;;18.20;99.90;;;;;;5004043;28;25061;-74
2022/09/21 12:41:44;;;;;;;3.40;0.80;;;17.80;99.90;;;;;;5000563;28;25085;-74
2022/09/21 12:44:19;;;;;;;5.05;0.70;;;17.60;99.90;;;;;;5000187;28;25069;-74
2022/09/21 12:46:53;;;;;;;1.60;1.40;;;18.40;99.90;;;;;;5008798;28;25064;-74
2022/09/21 12:49:24;;;;;;;4.53;0.75;;;18.90;99.90;;;;;;5006329;28;25059;-74
2022/09/21 12:51:55;;;;;;;2.83;0.77;;;19.50;99.90;;;;;;5003532;28;25054;-74
2022/09/21 12:54:43;;;;;;;3.70;0.80;;;19.80;99.90;;;;;;5007246;28;25050;-74
2022/09/21 12:57:13;;;;;;;1.42;0.52;;;20.20;99.90;;;;;;4993229;28;25089;-74
2022/09/21 12:59:55;;;;;;;5.32;0.73;;;20.20;99.90;;;;;;4996685;28;25145;-73
2022/09/21 13:02:40;;;;;;;3.45;0.55;;;20.40;99.90;;;;;;5000185;28;25082;-74
2022/09/21 13:05:15;;;;;;;1.85;0.43;;;20.50;99.90;;;;;;5001216;28;25123;-73
2022/09/21 13:07:59;;;;;;;2.58;0.50;;;20.20;99.90;;;;;;5004544;28;25156;-73
2022/09/21 13:10:27;;;;;;;1.20;0.73;;;20.30;99.90;;;;;;5001154;28;25137;-72
2022/09/21 13:13:02;;;;;;;3.47;0.68;;;20.10;99.90;;;;;;4993245;28;25062;-73
2022/09/21 13:15:42;;;;;;;3.13;0.60;;;19.20;99.90;;;;;;4998029;28;25114;-73
2022/09/21 13:18:27;;;;;;;2.15;0.55;;;18.40;99.90;;;;;;4993756;28;25090;-73